Time;durP1;ratioP1;P1;durP2;ratioP2;P2;SDS_P1;SDS_P2;PMS_P1;PMS_P2;Temp;Humidity;BMP_temperature;BMP_pressure;BME280_temperature;BME280_humidity;BME280_pressure;Samples;Min_cycle;Max_cycle;Signal;HPM_P1;HPM_P2
2022/05/02 00:04:21;;;;;;;15.90;9.70;;;7.70;1.00;;;;;;10527137;28;20424;-79
2022/05/02 00:09:42;;;;;;;17.30;9.27;;;7.60;1.00;;;;;;10517662;28;20202;-79
2022/05/02 00:15:07;;;;;;;16.37;8.50;;;7.50;39.40;;;;;;10582181;28;20293;-78
2022/05/02 00:20:34;;;;;;;15.23;8.53;;;7.40;99.90;;;;;;10565470;28;20200;-80
2022/05/02 00:25:56;;;;;;;14.13;8.03;;;7.40;99.90;;;;;;10566006;28;20250;-81
2022/05/02 00:31:17;;;;;;;20.70;8.97;;;7.30;99.90;;;;;;10565942;28;20198;-78
2022/05/02 00:36:39;;;;;;;13.00;8.20;;;7.30;99.90;;;;;;10564760;28;20191;-77
2022/05/02 00:42:01;;;;;;;13.87;8.07;;;7.20;99.90;;;;;;10564583;28;20203;-79
2022/05/02 00:47:22;;;;;;;11.97;8.33;;;7.10;99.90;;;;;;10564227;28;20228;-77
2022/05/02 00:52:43;;;;;;;14.27;8.30;;;7.10;99.90;;;;;;10563776;28;20391;-79
2022/05/02 00:58:06;;;;;;;15.23;8.67;;;7.00;99.90;;;;;;10549428;28;20263;-78
2022/05/02 01:03:27;;;;;;;12.43;7.40;;;7.00;1.00;;;;;;10532696;28;20235;-80
2022/05/02 01:08:53;;;;;;;13.47;9.00;;;6.80;1.00;;;;;;10522159;28;20249;-78
2022/05/02 01:14:14;;;;;;;16.73;9.77;;;6.80;1.00;;;;;;10552802;28;20293;-79
2022/05/02 01:19:35;;;;;;;13.03;8.27;;;6.70;1.00;;;;;;10563011;28;20192;-80
2022/05/02 01:24:57;;;;;;;15.17;9.00;;;6.70;1.00;;;;;;10563749;28;20231;-79
2022/05/02 01:30:18;;;;;;;12.13;8.13;;;6.60;1.00;;;;;;10563604;28;20474;-78
2022/05/02 01:35:39;;;;;;;13.13;8.27;;;6.60;1.00;;;;;;10563467;28;20366;-79
2022/05/02 01:41:03;;;;;;;13.40;8.73;;;6.50;1.00;;;;;;10563177;28;20188;-78
2022/05/02 01:46:24;;;;;;;14.93;8.73;;;6.40;1.00;;;;;;10561950;28;20563;-77
2022/05/02 01:51:45;;;;;;;14.73;8.17;;;6.30;1.00;;;;;;10562585;28;20213;-78
2022/05/02 01:57:08;;;;;;;12.37;7.90;;;6.30;1.00;;;;;;10561807;28;20196;-78
2022/05/02 02:02:29;;;;;;;17.67;8.60;;;6.30;1.00;;;;;;10539981;28;20278;-79
2022/05/02 02:07:51;;;;;;;13.07;8.60;;;6.30;1.00;;;;;;10519805;28;20290;-79
2022/05/02 02:13:13;;;;;;;14.83;8.23;;;6.30;1.00;;;;;;10542210;28;20193;-77
2022/05/02 02:18:35;;;;;;;14.27;8.67;;;6.20;1.00;;;;;;10560668;28;20544;-77
2022/05/02 02:23:56;;;;;;;15.70;8.57;;;6.10;1.00;;;;;;10560985;28;20221;-78
2022/05/02 02:29:17;;;;;;;15.10;8.70;;;6.10;1.00;;;;;;10560147;28;20540;-78
2022/05/02 02:34:38;;;;;;;13.57;8.23;;;6.10;1.00;;;;;;10560398;28;20270;-77
2022/05/02 02:40:00;;;;;;;15.00;9.13;;;6.10;1.00;;;;;;10561490;28;20413;-78
2022/05/02 02:45:21;;;;;;;14.43;8.13;;;6.00;1.00;;;;;;10560375;28;20484;-78
2022/05/02 02:50:42;;;;;;;14.43;8.93;;;6.00;1.00;;;;;;10560280;28;20254;-79
2022/05/02 02:56:03;;;;;;;15.33;9.40;;;6.00;1.00;;;;;;10561309;28;20200;-79
2022/05/02 03:01:25;;;;;;;17.93;9.70;;;5.90;1.00;;;;;;10546325;28;20197;-78
2022/05/02 03:06:46;;;;;;;14.03;9.00;;;5.80;1.00;;;;;;10518241;28;20221;-78
2022/05/02 03:12:08;;;;;;;15.40;9.53;;;5.90;1.00;;;;;;10527573;28;20272;-77
2022/05/02 03:17:29;;;;;;;18.77;10.27;;;5.80;1.00;;;;;;10560705;28;20228;-78
2022/05/02 03:22:50;;;;;;;16.83;10.73;;;5.80;1.00;;;;;;10560648;28;20188;-78
2022/05/02 03:28:12;;;;;;;32.57;21.40;;;5.80;1.00;;;;;;10559442;28;20560;-78
2022/05/02 03:33:33;;;;;;;37.60;24.83;;;5.80;1.00;;;;;;10560509;28;20191;-78
2022/05/02 03:38:55;;;;;;;50.33;35.67;;;5.70;1.00;;;;;;10560616;28;20501;-77
2022/05/02 03:44:16;;;;;;;52.63;35.90;;;5.80;1.00;;;;;;10567759;28;20201;-80
2022/05/02 03:49:37;;;;;;;35.27;23.00;;;5.80;1.00;;;;;;10566713;28;20304;-78
2022/05/02 03:54:58;;;;;;;21.00;14.97;;;5.80;1.00;;;;;;10566571;28;20200;-79
2022/05/02 04:00:20;;;;;;;18.40;11.67;;;5.90;1.00;;;;;;10547461;28;20205;-77
2022/05/02 04:05:44;;;;;;;18.83;11.20;;;5.90;1.00;;;;;;10524031;28;20284;-79
2022/05/02 04:11:05;;;;;;;17.73;10.33;;;6.00;1.00;;;;;;10524359;28;20199;-78
2022/05/02 04:16:27;;;;;;;16.90;9.07;;;6.00;1.00;;;;;;10565578;28;20197;-78
2022/05/02 04:21:48;;;;;;;13.00;9.23;;;6.00;1.00;;;;;;10565495;28;20189;-78
2022/05/02 04:27:09;;;;;;;14.57;8.90;;;6.10;1.00;;;;;;10564993;28;20306;-78
2022/05/02 04:32:30;;;;;;;14.77;9.17;;;6.20;1.00;;;;;;10566207;28;20188;-78
2022/05/02 04:37:52;;;;;;;16.07;9.47;;;6.30;1.00;;;;;;10565964;28;20264;-77
2022/05/02 04:43:14;;;;;;;15.50;8.37;;;6.40;1.00;;;;;;10564687;28;20193;-78
2022/05/02 04:48:35;;;;;;;13.77;8.23;;;6.60;1.00;;;;;;10565279;28;20225;-78
2022/05/02 04:53:56;;;;;;;11.67;8.17;;;6.70;1.00;;;;;;10564997;28;20478;-78
2022/05/02 04:59:17;;;;;;;9.03;6.90;;;6.80;1.00;;;;;;10549701;28;20191;-80
2022/05/02 05:04:38;;;;;;;12.57;8.30;;;6.90;1.00;;;;;;10524085;28;20198;-78
2022/05/02 05:10:00;;;;;;;16.40;8.87;;;7.10;1.00;;;;;;10500044;28;20527;-78
2022/05/02 05:21:08;;;;;;;13.50;8.03;;;7.40;1.00;;;;;;10522063;28;20237;-78
2022/05/02 05:26:49;;;;;;;14.90;7.87;;;7.70;1.00;;;;;;10521141;28;20235;-78
2022/05/02 05:32:13;;;;;;;13.53;8.07;;;7.90;1.00;;;;;;10520438;28;20515;-77
2022/05/02 05:37:37;;;;;;;10.63;6.67;;;8.10;1.00;;;;;;10521517;28;20217;-79
2022/05/02 05:43:01;;;;;;;11.87;7.20;;;8.40;1.00;;;;;;10521120;28;20202;-77
2022/05/02 05:48:44;;;;;;;11.67;6.60;;;8.70;1.00;;;;;;10521091;28;20228;-78
2022/05/02 05:54:22;;;;;;;20.70;9.93;;;9.20;1.00;;;;;;10505774;28;20434;-78
2022/05/02 06:00:02;;;;;;;17.53;8.30;;;9.90;1.00;;;;;;10520607;28;20194;-78
2022/05/02 06:05:26;;;;;;;14.50;6.80;;;10.50;99.90;;;;;;10477477;28;20240;-78
2022/05/02 06:10:51;;;;;;;6.70;4.40;;;11.20;1.00;;;;;;10500350;28;20269;-78
2022/05/02 06:21:56;;;;;;;5.18;3.38;;;12.80;1.00;;;;;;10560798;28;20224;-78
2022/05/02 06:27:18;;;;;;;7.22;3.90;;;13.70;99.90;;;;;;10560599;28;20289;-78
2022/05/02 06:32:43;;;;;;;5.55;3.13;;;14.40;1.00;;;;;;10561826;28;20213;-79
2022/05/02 06:38:20;;;;;;;4.47;2.70;;;15.00;99.90;;;;;;10561341;28;20193;-78
2022/05/02 06:44:03;;;;;;;10.07;2.92;;;15.70;46.50;;;;;;10561541;28;20193;-78
2022/05/02 06:49:25;;;;;;;7.05;2.60;;;16.40;1.00;;;;;;10561087;28;20227;-78
2022/05/02 06:54:49;;;;;;;11.80;5.20;;;16.90;99.90;;;;;;10560080;28;20189;-78
2022/05/02 07:00:14;;;;;;;5.68;3.50;;;17.50;1.00;;;;;;10542414;28;20203;-76
2022/05/02 07:06:08;;;;;;;3.17;2.08;;;17.60;1.00;;;;;;10519103;28;20214;-77
2022/05/02 07:11:54;;;;;;;6.43;1.70;;;18.20;99.90;;;;;;10521591;28;20198;-76
2022/05/02 07:17:38;;;;;;;7.05;4.30;;;18.70;99.90;;;;;;10565409;28;20364;-78
2022/05/02 07:23:21;;;;;;;6.47;3.83;;;19.00;99.90;;;;;;10567598;28;20220;-80
2022/05/02 07:28:45;;;;;;;4.82;3.92;;;18.90;99.90;;;;;;10568480;28;20265;-79
2022/05/02 07:34:06;;;;;;;4.90;2.88;;;19.20;99.90;;;;;;10567293;28;20198;-80
2022/05/02 07:39:29;;;;;;;7.95;3.40;;;19.40;99.90;;;;;;10567010;28;20221;-81
2022/05/02 07:44:54;;;;;;;5.80;3.30;;;20.00;99.90;;;;;;10567085;28;20289;-77
2022/05/02 07:50:17;;;;;;;6.20;3.47;;;20.40;99.90;;;;;;10567795;28;20213;-77
2022/05/02 07:55:39;;;;;;;10.50;3.20;;;20.50;99.90;;;;;;10567965;28;20481;-78
2022/05/02 08:01:01;;;;;;;6.03;2.88;;;20.50;99.90;;;;;;10556527;28;20225;-78
2022/05/02 08:06:43;;;;;;;5.68;3.03;;;20.60;99.90;;;;;;10524426;28;20222;-77
2022/05/02 08:12:23;;;;;;;4.53;2.88;;;20.90;99.90;;;;;;10530936;28;20219;-77
2022/05/02 08:17:55;;;;;;;7.63;3.03;;;20.80;99.90;;;;;;10551586;28;20490;-77
2022/05/02 08:29:34;;;;;;;4.50;2.60;;;21.00;22.50;;;;;;10565759;28;20217;-77
2022/05/02 08:35:18;;;;;;;4.35;2.25;;;21.90;20.70;;;;;;10489412;28;20540;-78
2022/05/02 08:41:03;;;;;;;3.08;1.80;;;22.20;6.60;;;;;;10520546;28;20411;-80
2022/05/02 08:46:43;;;;;;;5.25;2.53;;;22.70;23.10;;;;;;10520097;28;20546;-77
2022/05/02 08:52:35;;;;;;;4.10;2.05;;;23.20;6.20;;;;;;10518977;28;20393;-77
2022/05/02 08:58:26;;;;;;;4.45;2.08;;;23.50;99.90;;;;;;10487980;28;20290;-78
2022/05/02 09:04:06;;;;;;;3.40;1.35;;;23.60;17.40;;;;;;10454766;28;20218;-78
2022/05/02 09:10:02;;;;;;;6.47;2.28;;;23.10;1.00;;;;;;10460665;28;20423;-80
2022/05/02 09:16:00;;;;;;;4.45;1.52;;;23.50;21.40;;;;;;10496280;28;20196;-77
2022/05/02 09:21:52;;;;;;;2.38;1.60;;;24.00;1.00;;;;;;10479595;28;20200;-77
2022/05/02 09:27:39;;;;;;;4.90;1.27;;;24.30;1.00;;;;;;10480500;28;20273;-77
2022/05/02 09:33:38;;;;;;;2.65;1.60;;;24.20;1.00;;;;;;10478691;28;20207;-77
2022/05/02 09:39:22;;;;;;;2.92;1.50;;;24.50;1.00;;;;;;10479316;28;20245;-77
2022/05/02 09:51:08;;;;;;;2.95;1.38;;;24.00;1.00;;;;;;10479257;28;20235;-80
2022/05/02 09:56:44;;;;;;;2.22;1.45;;;24.00;1.00;;;;;;10479215;28;20195;-80
2022/05/02 10:02:12;;;;;;;1.25;0.93;;;24.50;1.00;;;;;;10496788;28;20226;-80
2022/05/02 10:07:44;;;;;;;1.83;1.08;;;24.90;1.00;;;;;;10518956;28;20237;-79
2022/05/02 10:13:48;;;;;;;2.95;1.38;;;25.40;1.00;;;;;;10536474;28;20195;-80
2022/05/02 10:19:16;;;;;;;1.88;1.30;;;25.80;1.00;;;;;;10515989;28;20444;-79
2022/05/02 10:24:52;;;;;;;1.95;1.45;;;25.20;1.00;;;;;;10485293;28;20239;-79
2022/05/02 10:30:18;;;;;;;1.35;1.10;;;25.20;1.00;;;;;;10516051;28;20553;-82
2022/05/02 10:35:45;;;;;;;2.40;1.73;;;25.30;1.00;;;;;;10502288;28;20213;-79
2022/05/02 10:41:12;;;;;;;5.80;1.67;;;25.20;1.00;;;;;;10470967;28;20211;-79
2022/05/02 10:46:35;;;;;;;1.40;0.98;;;25.30;1.00;;;;;;10501310;28;20537;-79
2022/05/02 10:52:02;;;;;;;3.42;1.30;;;25.60;1.00;;;;;;10522801;28;20187;-78
2022/05/02 10:57:38;;;;;;;2.05;1.33;;;25.50;1.00;;;;;;10540354;28;20202;-79
2022/05/02 11:03:19;;;;;;;1.10;0.98;;;25.30;1.00;;;;;;10527656;28;20573;-79
2022/05/02 11:08:49;;;;;;;2.13;1.35;;;25.10;1.00;;;;;;10524659;28;20218;-80
2022/05/02 11:14:20;;;;;;;3.00;0.95;;;25.50;1.00;;;;;;10542341;28;20203;-79
2022/05/02 11:25:59;;;;;;;6.10;0.90;;;25.50;1.00;;;;;;10567559;28;20214;-81
2022/05/02 11:31:41;;;;;;;2.88;0.90;;;25.30;1.00;;;;;;10567332;28;20493;-79
2022/05/02 11:37:06;;;;;;;3.90;0.90;;;24.60;1.00;;;;;;10567868;28;20201;-80
2022/05/02 11:42:28;;;;;;;1.15;0.80;;;25.10;1.00;;;;;;10566895;28;20199;-79
2022/05/02 11:48:07;;;;;;;3.58;0.95;;;24.90;1.00;;;;;;10566985;28;20525;-81
2022/05/02 11:53:34;;;;;;;2.80;0.80;;;24.60;1.00;;;;;;10567495;28;20191;-79
2022/05/02 11:59:05;;;;;;;2.08;1.05;;;24.30;1.00;;;;;;10566252;28;20497;-79
2022/05/02 12:04:29;;;;;;;1.35;0.70;;;24.60;1.00;;;;;;10527848;28;20199;-79
2022/05/02 12:10:08;;;;;;;1.33;0.90;;;24.30;1.00;;;;;;10517783;28;20227;-81
2022/05/02 12:15:30;;;;;;;2.58;0.90;;;24.20;1.00;;;;;;10482964;28;20259;-80
2022/05/02 12:20:58;;;;;;;0.85;0.70;;;24.10;1.00;;;;;;10483114;28;20388;-78
2022/05/02 12:26:23;;;;;;;1.77;0.88;;;23.70;1.00;;;;;;10497968;28;20263;-79
2022/05/02 12:32:05;;;;;;;1.40;0.80;;;23.90;1.00;;;;;;10482534;28;20200;-79
2022/05/02 12:37:32;;;;;;;1.25;0.85;;;23.90;1.00;;;;;;10482311;28;20199;-79
2022/05/02 12:43:03;;;;;;;1.27;0.70;;;23.70;1.00;;;;;;10481960;28;20562;-79
2022/05/02 12:48:29;;;;;;;1.83;0.73;;;23.60;1.00;;;;;;10481800;28;20224;-78
2022/05/02 12:54:15;;;;;;;4.72;0.80;;;23.60;1.00;;;;;;10497216;28;20409;-80
2022/05/02 13:05:22;;;;;;;3.10;0.55;;;23.40;1.00;;;;;;10481180;28;20267;-79
2022/05/02 13:10:44;;;;;;;3.63;1.00;;;23.50;1.00;;;;;;10501249;28;20248;-79
2022/05/02 13:16:38;;;;;;;0.70;0.63;;;23.20;1.00;;;;;;10564347;28;20369;-79
2022/05/02 13:21:59;;;;;;;5.28;1.00;;;22.70;1.00;;;;;;10504212;28;20457;-79
2022/05/02 13:27:32;;;;;;;1.60;0.70;;;22.50;1.00;;;;;;10487027;28;20244;-80
2022/05/02 13:33:03;;;;;;;0.80;0.60;;;22.30;1.00;;;;;;10503642;28;20270;-81
2022/05/02 13:38:32;;;;;;;1.27;0.93;;;22.10;1.00;;;;;;10517689;28;20278;-79
2022/05/02 13:44:21;;;;;;;1.20;0.65;;;22.00;1.00;;;;;;10517718;28;20207;-79
2022/05/02 13:50:10;;;;;;;1.20;0.90;;;21.80;1.00;;;;;;10517181;28;20227;-79
2022/05/02 13:55:53;;;;;;;1.55;0.85;;;21.80;1.00;;;;;;10525610;28;20454;-79
2022/05/02 14:01:43;;;;;;;1.30;0.90;;;21.30;1.00;;;;;;10549466;28;20226;-79
2022/05/02 14:07:13;;;;;;;1.05;0.70;;;21.30;1.00;;;;;;10519272;28;20218;-78
2022/05/02 14:12:36;;;;;;;0.38;0.35;;;21.20;1.00;;;;;;10531175;28;20389;-80
2022/05/02 14:17:58;;;;;;;7.38;0.95;;;21.10;1.00;;;;;;10561931;28;20485;-79
2022/05/02 14:23:19;;;;;;;2.63;0.70;;;20.90;1.00;;;;;;10559951;28;20202;-78
2022/05/02 14:28:45;;;;;;;1.73;1.00;;;20.90;1.00;;;;;;10561512;28;20218;-78
2022/05/02 14:34:12;;;;;;;1.67;0.80;;;20.80;1.00;;;;;;10546566;28;20198;-78
2022/05/02 14:39:38;;;;;;;2.20;1.23;;;20.70;1.00;;;;;;10560018;28;20225;-78
2022/05/02 14:44:59;;;;;;;1.17;0.82;;;20.60;1.00;;;;;;10561249;28;20209;-78
2022/05/02 14:50:21;;;;;;;1.98;1.05;;;20.40;1.00;;;;;;10560119;28;20487;-80
2022/05/02 14:55:51;;;;;;;1.05;0.50;;;20.30;1.00;;;;;;10560414;28;20265;-80
2022/05/02 15:01:16;;;;;;;2.50;0.88;;;20.10;1.00;;;;;;10548524;28;20426;-78
2022/05/02 15:06:38;;;;;;;2.95;1.30;;;20.00;1.00;;;;;;10518798;28;20207;-79
2022/05/02 15:12:10;;;;;;;2.08;0.95;;;19.90;1.00;;;;;;10525855;28;20202;-79
2022/05/02 15:17:34;;;;;;;2.03;1.00;;;19.90;1.00;;;;;;10559750;28;20206;-78
2022/05/02 15:23:02;;;;;;;1.67;0.60;;;19.70;1.00;;;;;;10560454;28;20191;-78
2022/05/02 15:39:43;;;;;;;1.40;1.27;;;19.30;1.00;;;;;;10567070;28;20194;-78
2022/05/02 15:45:19;;;;;;;1.25;1.05;;;19.10;1.00;;;;;;10539566;28;20194;-79
2022/05/02 15:50:42;;;;;;;2.72;0.80;;;18.90;1.00;;;;;;10567698;28;20225;-79
2022/05/02 15:56:15;;;;;;;2.20;0.82;;;18.90;1.00;;;;;;10567668;28;20508;-78
2022/05/02 16:01:54;;;;;;;1.85;1.20;;;18.90;1.00;;;;;;10551797;28;20516;-78
2022/05/02 16:12:56;;;;;;;2.47;0.88;;;18.90;1.00;;;;;;10537448;28;20278;-78
2022/05/02 16:18:25;;;;;;;2.55;1.30;;;18.80;1.00;;;;;;10566902;28;20197;-78
2022/05/02 16:23:47;;;;;;;8.35;2.42;;;18.70;1.00;;;;;;10566753;28;20190;-77
2022/05/02 16:29:15;;;;;;;8.63;3.85;;;18.50;1.00;;;;;;10565019;28;20257;-78
2022/05/02 16:34:47;;;;;;;4.07;2.40;;;18.20;99.90;;;;;;10565868;28;20201;-78
2022/05/02 16:40:29;;;;;;;3.95;2.60;;;17.90;99.90;;;;;;10565031;28;20378;-78
2022/05/02 16:45:52;;;;;;;3.30;3.00;;;17.50;1.00;;;;;;10550021;28;20202;-78
2022/05/02 16:51:25;;;;;;;12.43;3.47;;;17.20;1.00;;;;;;10535998;28;20297;-78
2022/05/02 16:56:46;;;;;;;3.33;2.45;;;17.00;1.00;;;;;;10564364;28;20265;-77
2022/05/02 17:02:11;;;;;;;6.68;2.72;;;16.70;1.00;;;;;;10544102;28;20500;-79
2022/05/02 17:07:39;;;;;;;6.20;2.80;;;16.50;1.00;;;;;;10493550;28;20305;-79
2022/05/02 17:13:02;;;;;;;5.80;2.92;;;16.30;1.00;;;;;;10536804;28;20214;-79
2022/05/02 17:18:25;;;;;;;5.65;4.22;;;16.10;1.00;;;;;;10563951;28;20354;-78
2022/05/02 17:23:48;;;;;;;3.67;2.60;;;16.10;1.00;;;;;;10562917;28;20202;-77
2022/05/02 17:29:11;;;;;;;7.28;3.70;;;16.00;1.00;;;;;;10562521;28;20280;-78
2022/05/02 17:34:52;;;;;;;6.03;3.83;;;16.00;1.00;;;;;;10562955;28;20197;-78
2022/05/02 17:40:21;;;;;;;5.20;3.45;;;15.80;1.00;;;;;;10562892;28;20208;-78
2022/05/02 17:45:48;;;;;;;19.92;4.90;;;15.70;1.00;;;;;;10562356;28;20186;-79
2022/05/02 17:51:11;;;;;;;4.32;2.83;;;15.40;1.00;;;;;;10563219;28;20301;-77
2022/05/02 17:56:38;;;;;;;6.70;3.05;;;15.30;1.00;;;;;;10562811;28;20190;-78
2022/05/02 18:02:07;;;;;;;3.78;2.30;;;15.20;1.00;;;;;;10542467;28;20207;-78
2022/05/02 18:07:29;;;;;;;5.07;3.00;;;15.00;1.00;;;;;;10519489;28;20247;-78
2022/05/02 18:13:08;;;;;;;8.18;3.67;;;15.00;1.00;;;;;;10534572;28;20510;-77
2022/05/02 18:18:53;;;;;;;4.05;2.20;;;14.80;1.00;;;;;;10560986;28;20190;-77
2022/05/02 18:24:15;;;;;;;7.25;3.13;;;14.60;1.00;;;;;;10561058;28;20542;-78
2022/05/02 18:29:46;;;;;;;7.75;3.17;;;14.40;1.00;;;;;;10560569;28;20226;-80
2022/05/02 18:40:52;;;;;;;4.03;2.60;;;14.20;1.00;;;;;;10563613;28;20518;-78
2022/05/02 18:57:56;;;;;;;5.40;3.30;;;13.80;1.00;;;;;;10548600;28;20204;-79
2022/05/02 19:03:22;;;;;;;6.90;3.40;;;13.80;1.00;;;;;;10535471;28;20247;-78
2022/05/02 19:08:45;;;;;;;12.60;6.13;;;13.80;1.00;;;;;;10521653;28;20221;-78
2022/05/02 19:14:14;;;;;;;22.02;10.88;;;13.80;1.00;;;;;;10489343;28;20296;-79
2022/05/02 19:19:37;;;;;;;25.65;14.15;;;13.80;1.00;;;;;;10488167;28;20384;-79
2022/05/02 19:25:18;;;;;;;31.65;17.83;;;13.80;1.00;;;;;;10488818;28;20234;-77
2022/05/02 19:30:46;;;;;;;21.33;13.20;;;13.60;1.00;;;;;;10487226;28;20225;-78
2022/05/02 19:42:00;;;;;;;5.30;3.00;;;13.40;1.00;;;;;;10489525;28;20213;-79
2022/05/02 19:47:28;;;;;;;3.28;2.33;;;13.30;1.00;;;;;;10490570;28;20276;-77
2022/05/02 19:52:51;;;;;;;4.65;2.63;;;13.20;1.00;;;;;;10472705;28;20232;-80
2022/05/02 19:58:13;;;;;;;8.98;2.65;;;13.10;1.00;;;;;;10487792;28;20217;-79
2022/05/02 20:03:36;;;;;;;6.60;3.30;;;12.90;1.00;;;;;;10517702;28;20208;-78
2022/05/02 20:08:58;;;;;;;8.45;3.92;;;12.80;1.00;;;;;;10529939;28;20493;-78
2022/05/02 20:14:19;;;;;;;7.88;3.92;;;12.80;1.00;;;;;;10499622;28;20203;-78
2022/05/02 20:19:41;;;;;;;10.23;4.88;;;12.70;1.00;;;;;;10471602;28;20199;-78
2022/05/02 20:25:02;;;;;;;10.75;5.63;;;12.60;1.00;;;;;;10484633;28;20411;-79
2022/05/02 20:30:24;;;;;;;7.03;3.10;;;12.50;1.00;;;;;;10484142;28;20245;-78
2022/05/02 20:41:28;;;;;;;3.40;2.03;;;12.20;1.00;;;;;;10482344;28;20200;-78
2022/05/02 20:46:57;;;;;;;3.55;1.98;;;12.20;1.00;;;;;;10482384;28;20213;-79
2022/05/02 20:52:22;;;;;;;3.50;2.20;;;12.10;1.00;;;;;;10482089;28;20247;-79
2022/05/02 20:57:45;;;;;;;8.00;2.80;;;12.10;1.00;;;;;;10481647;28;20201;-77
2022/05/02 21:03:07;;;;;;;7.07;3.47;;;12.00;1.00;;;;;;10509111;28;20529;-78
2022/05/02 21:08:29;;;;;;;7.50;3.42;;;11.90;1.00;;;;;;10522729;28;20225;-79
2022/05/02 21:14:22;;;;;;;6.38;3.95;;;11.70;1.00;;;;;;10497478;28;20210;-78
2022/05/02 21:20:05;;;;;;;9.75;4.43;;;11.60;1.00;;;;;;10479647;28;20249;-78
2022/05/02 21:25:54;;;;;;;8.45;4.30;;;11.50;1.00;;;;;;10480394;28;20238;-78
2022/05/02 21:31:27;;;;;;;9.27;3.88;;;11.40;1.00;;;;;;10480384;28;20220;-77
2022/05/02 21:36:50;;;;;;;4.70;3.25;;;11.30;1.00;;;;;;10480463;28;20195;-79
2022/05/02 21:42:12;;;;;;;7.10;3.95;;;11.20;1.00;;;;;;10479078;28;20518;-78
2022/05/02 21:47:34;;;;;;;6.15;3.30;;;11.20;1.00;;;;;;10479966;28;20215;-77
2022/05/02 21:52:58;;;;;;;5.32;3.53;;;11.10;1.00;;;;;;10478539;28;20211;-79
2022/05/02 21:58:19;;;;;;;6.07;3.75;;;11.00;1.00;;;;;;10478489;28;20202;-77
2022/05/02 22:03:40;;;;;;;5.13;3.25;;;10.90;1.00;;;;;;10511105;28;20376;-78
2022/05/02 22:09:01;;;;;;;6.47;3.30;;;10.80;1.00;;;;;;10516276;28;20288;-78
2022/05/02 22:14:23;;;;;;;5.90;3.55;;;10.80;1.00;;;;;;10492367;28;20896;-79
2022/05/02 22:19:44;;;;;;;6.13;3.72;;;10.60;1.00;;;;;;10478858;28;20203;-78
2022/05/02 22:25:07;;;;;;;6.57;3.50;;;10.50;1.00;;;;;;10478325;28;20232;-78
2022/05/02 22:30:29;;;;;;;6.85;4.10;;;10.50;1.00;;;;;;10478382;28;20233;-77
2022/05/02 22:35:51;;;;;;;9.23;4.03;;;10.40;1.00;;;;;;10478130;28;20253;-77
2022/05/02 22:41:15;;;;;;;5.90;3.73;;;10.30;1.00;;;;;;10477504;28;20197;-78
2022/05/02 22:46:36;;;;;;;5.13;3.13;;;10.30;1.00;;;;;;10478139;28;20188;-78
2022/05/02 22:51:58;;;;;;;6.63;3.27;;;10.20;99.90;;;;;;10478064;28;20230;-78
2022/05/02 22:57:31;;;;;;;4.30;3.47;;;10.10;99.90;;;;;;10476862;28;20502;-78
2022/05/02 23:03:17;;;;;;;5.38;2.90;;;10.10;99.90;;;;;;10502887;28;20274;-77
2022/05/02 23:08:53;;;;;;;8.90;3.55;;;10.00;1.00;;;;;;10502927;28;20473;-78
2022/05/02 23:14:15;;;;;;;6.77;4.03;;;10.00;1.00;;;;;;10493490;28;20218;-79
2022/05/02 23:19:37;;;;;;;6.00;2.93;;;9.90;1.00;;;;;;10477009;28;20194;-77
2022/05/02 23:24:59;;;;;;;6.00;3.27;;;9.90;99.90;;;;;;10477252;28;20235;-78
2022/05/02 23:30:21;;;;;;;5.13;3.47;;;9.80;1.00;;;;;;10476811;28;20218;-79
2022/05/02 23:35:43;;;;;;;6.07;3.78;;;9.70;1.00;;;;;;10476722;28;20249;-78
2022/05/02 23:41:09;;;;;;;6.18;3.65;;;9.60;1.00;;;;;;10475936;28;20360;-77
2022/05/02 23:46:50;;;;;;;6.33;3.90;;;9.60;99.90;;;;;;10489909;28;20194;-78
2022/05/02 23:52:17;;;;;;;6.23;3.63;;;9.60;1.00;;;;;;10475663;28;20235;-77
2022/05/02 23:57:52;;;;;;;6.20;3.43;;;9.50;1.00;;;;;;10464394;28;20439;-78
